Time;durP1;ratioP1;P1;durP2;ratioP2;P2;SDS_P1;SDS_P2;PMS_P1;PMS_P2;Temp;Humidity;BMP_temperature;BMP_pressure;BME280_temperature;BME280_humidity;BME280_pressure;Samples;Min_cycle;Max_cycle;Signal;HPM_P1;HPM_P2
2021/09/14 00:00:27;;;;;;;21.02;9.52;;;;;;;16.59;99.76;101673.09;4963155;28;20149;-61
2021/09/14 00:02:54;;;;;;;14.23;8.70;;;;;;;16.58;100.00;101676.75;4978320;28;20707;-61
2021/09/14 00:05:21;;;;;;;15.63;9.38;;;;;;;16.54;100.00;101672.78;4969470;28;20148;-60
2021/09/14 00:07:47;;;;;;;18.13;9.63;;;;;;;16.49;100.00;101668.94;4976617;28;20149;-59
2021/09/14 00:10:14;;;;;;;14.25;9.30;;;;;;;16.57;100.00;101671.59;4977546;28;20046;-61
2021/09/14 00:12:40;;;;;;;14.40;8.85;;;;;;;16.51;100.00;101673.09;4969018;28;20081;-61
2021/09/14 00:15:08;;;;;;;14.95;8.95;;;;;;;16.51;100.00;101666.97;4971997;28;20074;-61
2021/09/14 00:17:35;;;;;;;15.55;9.52;;;;;;;16.46;99.94;101663.97;4972287;28;20142;-61
2021/09/14 00:20:02;;;;;;;14.32;9.30;;;;;;;16.47;100.00;101663.81;4974304;28;20073;-61
2021/09/14 00:22:29;;;;;;;14.77;9.32;;;;;;;16.46;100.00;101662.16;4970859;28;20141;-61
2021/09/14 00:24:55;;;;;;;14.48;9.55;;;;;;;16.48;100.00;101664.63;4977706;28;20137;-61
2021/09/14 00:27:21;;;;;;;14.15;9.15;;;;;;;16.45;100.00;101664.97;4973350;28;20054;-61
2021/09/14 00:29:48;;;;;;;16.08;10.00;;;;;;;16.43;100.00;101659.03;4972599;28;20162;-61
2021/09/14 00:32:14;;;;;;;16.08;9.35;;;;;;;16.43;100.00;101662.50;4978121;28;20054;-61
2021/09/14 00:34:41;;;;;;;14.95;10.48;;;;;;;16.42;100.00;101666.13;4976615;28;20133;-62
2021/09/14 00:37:07;;;;;;;15.95;9.32;;;;;;;16.43;99.85;101659.03;4979240;28;20176;-61
2021/09/14 00:39:34;;;;;;;18.48;9.45;;;;;;;16.01;100.00;101658.97;4976436;28;20185;-61
2021/09/14 00:42:00;;;;;;;18.58;10.40;;;;;;;15.86;100.00;101663.22;4977127;28;20165;-61
2021/09/14 00:44:27;;;;;;;15.95;9.02;;;;;;;16.15;100.00;101661.94;4982340;28;20058;-61
2021/09/14 00:46:53;;;;;;;14.70;10.10;;;;;;;15.83;100.00;101668.81;4972630;28;20134;-62
2021/09/14 00:49:20;;;;;;;17.88;9.65;;;;;;;15.71;100.00;101665.59;4981549;28;20121;-57
2021/09/14 00:51:47;;;;;;;17.50;10.05;;;;;;;15.59;100.00;101662.41;4972670;28;20138;-61
2021/09/14 00:54:16;;;;;;;16.58;9.82;;;;;;;15.92;100.00;101662.56;4978860;28;20050;-59
2021/09/14 00:56:43;;;;;;;;;;;;;;;16.06;100.00;101660.28;4969883;28;20819;-61
2021/09/14 00:59:10;;;;;;;16.10;9.43;;;;;;;16.01;100.00;101656.31;4984427;28;20001;-62
2021/09/14 01:01:37;;;;;;;19.80;9.77;;;;;;;16.07;100.00;101654.00;4977217;28;20090;-62
2021/09/14 01:04:04;;;;;;;14.63;9.40;;;;;;;15.90;100.00;101647.84;4978139;28;20113;-61
2021/09/14 01:06:33;;;;;;;16.48;9.57;;;;;;;16.05;100.00;101648.03;4978371;28;20042;-62
2021/09/14 01:09:01;;;;;;;14.88;9.57;;;;;;;16.08;100.00;101643.25;4970531;28;20276;-60
2021/09/14 01:11:28;;;;;;;16.92;10.18;;;;;;;16.16;100.00;101647.72;4976439;28;20065;-62
2021/09/14 01:14:04;;;;;;;14.60;8.60;;;;;;;16.18;100.00;101654.50;4972841;28;20778;-62
2021/09/14 01:16:33;;;;;;;16.67;9.23;;;;;;;16.08;100.00;101648.53;4978668;28;20053;-62
2021/09/14 01:19:00;;;;;;;16.58;10.07;;;;;;;16.20;100.00;101644.59;4970170;28;20161;-62
2021/09/14 01:21:30;;;;;;;15.38;10.18;;;;;;;16.14;100.00;101644.41;4976767;28;20484;-62
2021/09/14 01:23:58;;;;;;;18.05;10.23;;;;;;;16.17;100.00;101646.72;4977005;28;20133;-62
2021/09/14 01:26:25;;;;;;;16.65;9.63;;;;;;;16.17;100.00;101639.63;4975324;28;20638;-62
2021/09/14 01:28:51;;;;;;;18.13;10.02;;;;;;;16.19;100.00;101635.00;4979327;28;20117;-62
2021/09/14 01:31:19;;;;;;;18.67;11.68;;;;;;;16.22;100.00;101633.84;4973175;28;20831;-61
2021/09/14 01:33:50;;;;;;;17.27;10.25;;;;;;;16.23;100.00;101638.16;4982663;28;20086;-62
2021/09/14 01:36:17;;;;;;;17.33;10.57;;;;;;;16.25;100.00;101636.16;4969570;28;20137;-62
2021/09/14 01:38:45;;;;;;;18.05;9.82;;;;;;;16.20;100.00;101644.59;4976271;28;20137;-62
2021/09/14 01:41:13;;;;;;;15.50;9.77;;;;;;;16.10;100.00;101641.25;4979562;28;20109;-62
2021/09/14 01:43:40;;;;;;;14.88;9.38;;;;;;;16.16;100.00;101645.09;4969882;28;20082;-62
2021/09/14 01:46:07;;;;;;;16.35;10.05;;;;;;;15.77;100.00;101641.16;4980513;28;20591;-62
2021/09/14 01:48:34;;;;;;;14.70;9.70;;;;;;;15.77;100.00;101641.16;4967479;28;20679;-62
2021/09/14 01:51:02;;;;;;;16.38;10.57;;;;;;;15.81;100.00;101649.63;4974860;28;20991;-62
2021/09/14 01:53:29;;;;;;;13.98;9.35;;;;;;;15.77;100.00;101643.81;4969708;28;20058;-62
2021/09/14 01:56:01;;;;;;;16.08;10.73;;;;;;;15.85;100.00;101643.03;4981204;28;20053;-62
2021/09/14 01:58:28;;;;;;;18.92;10.57;;;;;;;15.75;100.00;101644.97;4978753;28;20169;-61
2021/09/14 02:01:01;;;;;;;16.00;10.48;;;;;;;15.86;100.00;101638.56;4973293;28;20086;-59
2021/09/14 02:03:38;;;;;;;20.42;10.23;;;;;;;15.81;100.00;101631.94;4972741;28;20054;-62
2021/09/14 02:39:05;;;;;;;17.40;10.32;;;;;;;15.77;100.00;101601.50;4971350;28;20086;-61
2021/09/14 02:44:23;;;;;;;24.25;11.38;;;;;;;15.75;100.00;101602.66;4975700;28;20094;-61
2021/09/14 03:00:35;;;;;;;18.75;11.30;;;;;;;15.61;100.00;101599.59;4969260;28;20086;-61
2021/09/14 03:03:03;;;;;;;17.15;11.38;;;;;;;15.61;100.00;101598.78;4974201;28;20104;-62
2021/09/14 03:05:31;;;;;;;;;;;;;;;15.62;100.00;101603.06;4981120;28;20078;-62
2021/09/14 03:07:57;;;;;;;16.42;11.00;;;;;;;15.57;100.00;101598.28;4973927;28;20036;-62
2021/09/14 03:10:24;;;;;;;17.75;10.63;;;;;;;15.58;100.00;101601.75;4980586;28;20483;-62
2021/09/14 03:12:50;;;;;;;19.77;11.65;;;;;;;15.54;100.00;101588.03;4974528;28;20085;-62
2021/09/14 03:15:16;;;;;;;20.20;10.63;;;;;;;15.39;100.00;101589.63;4966994;28;20165;-62
2021/09/14 03:17:43;;;;;;;21.08;12.07;;;;;;;15.37;100.00;101597.72;4980687;28;20144;-62
2021/09/14 03:20:10;;;;;;;21.38;11.77;;;;;;;15.33;100.00;101591.09;4970790;28;20815;-60
2021/09/14 03:22:36;;;;;;;20.08;11.98;;;;;;;15.43;100.00;101583.84;4980600;28;20141;-61
2021/09/14 03:25:03;;;;;;;20.58;12.18;;;;;;;15.43;100.00;101581.19;4967467;28;20137;-62
2021/09/14 03:27:30;;;;;;;22.60;12.18;;;;;;;15.40;100.00;101580.69;4975654;28;20085;-61
2021/09/14 03:29:56;;;;;;;19.15;11.57;;;;;;;15.31;100.00;101584.28;4969085;28;20852;-62
2021/09/14 03:32:23;;;;;;;21.52;12.95;;;;;;;15.41;100.00;101577.91;4977378;28;20479;-62
2021/09/14 03:34:49;;;;;;;17.80;11.50;;;;;;;15.09;100.00;101573.28;4974503;28;20348;-62
2021/09/14 03:37:16;;;;;;;18.92;12.15;;;;;;;15.30;100.00;101574.72;4974273;28;20051;-62
2021/09/14 03:39:42;;;;;;;19.85;12.65;;;;;;;15.34;100.00;101565.47;4975232;28;20086;-62
2021/09/14 03:42:09;;;;;;;20.27;12.15;;;;;;;15.40;100.00;101557.72;4968034;28;20066;-62
2021/09/14 03:44:35;;;;;;;22.77;13.05;;;;;;;15.39;100.00;101565.84;4973939;28;20130;-62
2021/09/14 03:47:02;;;;;;;20.27;12.85;;;;;;;15.13;100.00;101565.88;4975986;28;20046;-62
2021/09/14 03:49:28;;;;;;;19.33;12.45;;;;;;;15.31;100.00;101563.13;4971484;28;20145;-61
2021/09/14 03:51:55;;;;;;;22.77;12.57;;;;;;;15.12;100.00;101562.41;4977793;28;20101;-62
2021/09/14 03:54:21;;;;;;;23.67;12.95;;;;;;;15.13;100.00;101552.66;4969029;28;20614;-62
2021/09/14 03:56:48;;;;;;;18.83;12.52;;;;;;;15.08;100.00;101547.03;4973034;28;20812;-62
2021/09/14 03:59:17;;;;;;;21.63;13.40;;;;;;;15.08;100.00;101544.41;4970380;28;20050;-62
2021/09/14 04:01:49;;;;;;;20.45;12.75;;;;;;;15.04;100.00;101549.16;4975010;28;20150;-62
2021/09/14 04:04:23;;;;;;;22.42;12.73;;;;;;;14.88;100.00;101539.34;4980964;28;20606;-62
2021/09/14 04:09:35;;;;;;;20.95;12.68;;;;;;;15.21;100.00;101542.13;4977583;28;20153;-62
2021/09/14 04:12:02;;;;;;;24.83;13.25;;;;;;;15.16;100.00;101539.16;4972250;28;20415;-62
2021/09/14 04:14:29;;;;;;;22.00;13.45;;;;;;;14.98;100.00;101533.94;4980165;28;20142;-62
2021/09/14 04:16:56;;;;;;;21.88;13.27;;;;;;;15.09;100.00;101531.00;4975102;28;20085;-62
2021/09/14 04:19:22;;;;;;;21.42;13.43;;;;;;;15.13;100.00;101532.38;4980940;28;20500;-62
2021/09/14 04:21:50;;;;;;;21.80;13.25;;;;;;;14.94;100.00;101525.50;4971774;28;20125;-62
2021/09/14 04:24:16;;;;;;;23.73;13.15;;;;;;;15.01;100.00;101521.25;4977247;28;20140;-60
2021/09/14 04:26:43;;;;;;;22.23;13.90;;;;;;;14.96;100.00;101520.06;4974828;28;20129;-61
2021/09/14 04:29:09;;;;;;;21.83;12.75;;;;;;;14.99;100.00;101527.66;4977790;28;20490;-62
2021/09/14 04:31:35;;;;;;;19.95;12.38;;;;;;;14.76;100.00;101514.16;4979267;28;20078;-60
2021/09/14 04:34:02;;;;;;;23.70;13.52;;;;;;;14.94;100.00;101514.94;4977585;28;20547;-62
2021/09/14 04:36:28;;;;;;;21.27;12.30;;;;;;;14.89;100.00;101517.22;4977485;28;20089;-63
2021/09/14 04:38:55;;;;;;;25.90;14.13;;;;;;;14.95;100.00;101521.03;4973141;28;20519;-60
2021/09/14 04:41:23;;;;;;;21.80;12.48;;;;;;;14.83;100.00;101523.13;4975627;28;20084;-60
2021/09/14 04:43:50;;;;;;;27.23;13.95;;;;;;;14.69;100.00;101527.19;4985488;28;20086;-63
2021/09/14 04:46:16;;;;;;;26.75;13.35;;;;;;;14.79;100.00;101527.06;4972342;28;20150;-63
2021/09/14 04:48:43;;;;;;;25.55;13.82;;;;;;;14.93;100.00;101530.94;4982272;28;20129;-61
2021/09/14 04:51:09;;;;;;;23.25;13.48;;;;;;;14.61;100.00;101529.78;4967216;28;20157;-62
2021/09/14 04:53:35;;;;;;;27.33;13.88;;;;;;;14.68;100.00;101540.53;4977191;28;20474;-62
2021/09/14 04:56:02;;;;;;;22.15;13.02;;;;;;;14.83;100.00;101546.91;4978280;28;20085;-63
2021/09/14 04:58:29;;;;;;;25.05;13.95;;;;;;;14.94;100.00;101537.91;4978127;28;20105;-62
2021/09/14 05:00:55;;;;;;;23.27;13.60;;;;;;;14.96;100.00;101544.66;4980682;28;20703;-63
2021/09/14 05:03:22;;;;;;;27.85;13.82;;;;;;;15.02;100.00;101540.56;4974115;28;20596;-63
2021/09/14 05:05:48;;;;;;;29.27;13.88;;;;;;;15.03;100.00;101542.22;4974850;28;20137;-62
2021/09/14 05:08:15;;;;;;;20.73;13.55;;;;;;;15.05;100.00;101536.78;4972325;28;20188;-63
2021/09/14 05:10:41;;;;;;;25.45;14.27;;;;;;;14.98;100.00;101534.78;4982727;28;20097;-63
2021/09/14 05:13:08;;;;;;;23.55;15.02;;;;;;;14.99;100.00;101532.94;4978789;28;20062;-63
2021/09/14 05:15:34;;;;;;;23.00;13.68;;;;;;;14.94;100.00;101546.63;4975271;28;20133;-62
2021/09/14 05:18:09;;;;;;;27.30;13.95;;;;;;;14.93;100.00;101536.22;4972830;28;20129;-60
2021/09/14 05:20:36;;;;;;;24.80;14.80;;;;;;;14.99;100.00;101543.50;4970049;28;20499;-60
2021/09/14 05:23:11;;;;;;;24.40;14.68;;;;;;;14.99;100.00;101548.81;4981223;28;20110;-60
2021/09/14 05:25:40;;;;;;;24.98;13.98;;;;;;;14.96;100.00;101546.50;4976371;28;20136;-61
2021/09/14 05:28:06;;;;;;;21.60;14.13;;;;;;;14.89;100.00;101538.34;4978351;28;20134;-62
2021/09/14 05:30:33;;;;;;;25.98;14.63;;;;;;;14.87;100.00;101539.50;4973905;28;20169;-62
2021/09/14 05:33:00;;;;;;;24.70;14.82;;;;;;;14.81;100.00;101540.94;4969633;28;21141;-60
2021/09/14 05:35:36;;;;;;;28.70;14.43;;;;;;;14.72;100.00;101541.88;4978625;28;20794;-62
2021/09/14 05:38:03;;;;;;;24.25;15.05;;;;;;;14.75;100.00;101542.41;4973300;28;20134;-62
2021/09/14 05:40:29;;;;;;;22.83;13.68;;;;;;;14.80;100.00;101544.59;4981884;28;20137;-62
2021/09/14 05:42:56;;;;;;;23.48;14.45;;;;;;;14.81;100.00;101546.22;4970488;28;20141;-62
2021/09/14 05:45:22;;;;;;;19.00;13.27;;;;;;;14.93;100.00;101531.75;4977646;28;20161;-62
2021/09/14 05:47:49;;;;;;;23.10;14.20;;;;;;;14.97;100.00;101533.09;4973462;28;20550;-62
2021/09/14 05:50:15;;;;;;;26.80;15.40;;;;;;;14.96;100.00;101528.81;4979154;28;20708;-62
2021/09/14 05:52:42;;;;;;;23.45;14.98;;;;;;;15.01;100.00;101536.25;4977824;28;20156;-62
2021/09/14 05:55:09;;;;;;;22.40;13.75;;;;;;;15.07;100.00;101537.44;4975075;28;20134;-62
2021/09/14 05:57:35;;;;;;;24.92;15.13;;;;;;;14.93;100.00;101531.75;4976124;28;20050;-62
2021/09/14 06:00:03;;;;;;;28.70;14.38;;;;;;;15.09;100.00;101519.63;4971675;28;20078;-62
2021/09/14 06:02:29;;;;;;;26.85;14.88;;;;;;;15.12;100.00;101525.41;4974819;28;20133;-62
2021/09/14 06:04:56;;;;;;;23.92;14.90;;;;;;;15.26;100.00;101526.63;4981498;28;20086;-62
2021/09/14 06:07:22;;;;;;;30.40;16.55;;;;;;;15.32;100.00;101522.50;4975146;28;20105;-62
2021/09/14 06:09:53;;;;;;;27.83;16.27;;;;;;;15.38;100.00;101527.16;4980508;28;20078;-61
2021/09/14 06:12:19;;;;;;;24.98;14.88;;;;;;;15.43;100.00;101524.88;4971090;28;20106;-62
2021/09/14 06:14:46;;;;;;;23.27;13.85;;;;;;;15.48;100.00;101527.84;4975942;28;20053;-61
2021/09/14 06:17:12;;;;;;;23.17;14.00;;;;;;;15.54;100.00;101521.94;4968532;28;21337;-61
2021/09/14 06:19:39;;;;;;;26.40;16.25;;;;;;;15.64;100.00;101527.03;4981150;28;20162;-62
2021/09/14 06:22:05;;;;;;;22.55;15.02;;;;;;;15.71;100.00;101525.41;4973556;28;20185;-62
2021/09/14 06:24:32;;;;;;;22.75;14.07;;;;;;;15.37;100.00;101523.69;4976883;28;20054;-62
2021/09/14 06:26:58;;;;;;;26.50;16.40;;;;;;;15.21;100.00;101528.91;4975775;28;20058;-62
2021/09/14 06:29:25;;;;;;;18.35;11.60;;;;;;;15.32;100.00;101531.25;4967407;28;20137;-62
2021/09/14 06:31:51;;;;;;;25.65;15.68;;;;;;;15.69;100.00;101527.41;4978457;28;20082;-62
2021/09/14 06:34:18;;;;;;;24.45;15.43;;;;;;;15.91;100.00;101525.13;4969907;28;21107;-62
2021/09/14 06:36:44;;;;;;;22.85;15.70;;;;;;;16.03;100.00;101526.47;4979160;28;20145;-63
2021/09/14 06:39:11;;;;;;;28.98;17.30;;;;;;;16.05;100.00;101521.81;4973285;28;20443;-62
2021/09/14 06:41:37;;;;;;;26.35;16.23;;;;;;;16.11;100.00;101515.06;4975668;28;20124;-60
2021/09/14 06:44:04;;;;;;;25.20;16.60;;;;;;;16.15;99.50;101516.38;4970226;28;20089;-62
2021/09/14 06:46:31;;;;;;;26.23;17.55;;;;;;;16.20;99.18;101511.41;4970982;28;20082;-62
2021/09/14 06:48:57;;;;;;;22.40;14.90;;;;;;;16.30;98.54;101520.00;4978481;28;20081;-59
2021/09/14 06:51:24;;;;;;;23.15;16.80;;;;;;;16.34;97.82;101516.03;4974643;28;20476;-60
2021/09/14 06:53:50;;;;;;;26.67;16.88;;;;;;;16.38;97.99;101513.88;4977801;28;20054;-62
2021/09/14 06:56:17;;;;;;;27.50;17.20;;;;;;;16.40;97.85;101509.25;4977298;28;20165;-62
2021/09/14 06:58:43;;;;;;;21.15;14.68;;;;;;;16.46;97.30;101516.50;4967330;28;20520;-62
2021/09/14 07:01:16;;;;;;;22.20;15.75;;;;;;;16.49;96.96;101526.78;4981252;28;20157;-62
2021/09/14 07:03:43;;;;;;;25.80;16.75;;;;;;;16.52;96.27;101531.72;4969098;28;20054;-63
2021/09/14 07:06:10;;;;;;;23.08;15.20;;;;;;;16.46;96.95;101527.09;4980940;28;20160;-63
2021/09/14 07:08:36;;;;;;;25.73;17.48;;;;;;;16.45;96.37;101524.63;4969441;28;20066;-61
2021/09/14 07:11:02;;;;;;;20.67;12.50;;;;;;;16.55;94.87;101525.28;4973888;28;20176;-62
2021/09/14 07:13:29;;;;;;;27.88;16.00;;;;;;;16.37;97.82;101518.34;4977455;28;20077;-62
2021/09/14 07:15:59;;;;;;;24.15;16.40;;;;;;;16.53;96.33;101517.50;4975964;28;20058;-62
2021/09/14 07:18:27;;;;;;;24.90;17.83;;;;;;;16.63;95.84;101516.50;4977943;28;20050;-63
2021/09/14 07:20:54;;;;;;;27.90;17.17;;;;;;;16.61;95.49;101517.47;4973759;28;20096;-62
2021/09/14 07:23:21;;;;;;;20.90;14.30;;;;;;;16.20;98.13;101514.88;4973548;28;20142;-62
2021/09/14 07:25:47;;;;;;;30.67;17.95;;;;;;;16.15;100.00;101513.72;4967886;28;20061;-60
2021/09/14 07:28:14;;;;;;;26.80;16.73;;;;;;;16.28;100.00;101521.19;4976819;28;20141;-62
2021/09/14 07:30:40;;;;;;;26.05;18.17;;;;;;;16.25;99.96;101511.75;4973863;28;20077;-62
2021/09/14 07:33:07;;;;;;;27.00;18.08;;;;;;;15.94;100.00;101504.47;4978032;28;20645;-62
2021/09/14 07:35:33;;;;;;;35.17;19.63;;;;;;;16.00;100.00;101501.16;4975730;28;20129;-62
2021/09/14 07:38:00;;;;;;;28.33;18.90;;;;;;;16.47;100.00;101504.13;4967237;28;20121;-62
2021/09/14 07:40:27;;;;;;;29.55;17.90;;;;;;;16.70;98.83;101502.41;4975411;28;20062;-62
2021/09/14 07:42:54;;;;;;;23.88;16.00;;;;;;;16.84;96.70;101497.41;4974273;28;20145;-62
2021/09/14 07:45:22;;;;;;;27.13;16.38;;;;;;;16.95;95.62;101502.34;4977330;28;20141;-62
2021/09/14 07:47:48;;;;;;;21.70;15.25;;;;;;;17.08;94.77;101499.97;4975628;28;20137;-62
2021/09/14 07:50:15;;;;;;;21.10;13.20;;;;;;;17.15;93.68;101495.63;4972835;28;20141;-62
2021/09/14 07:52:42;;;;;;;20.42;11.68;;;;;;;17.30;93.58;101501.00;4973813;28;20078;-62
2021/09/14 07:55:09;;;;;;;16.98;11.93;;;;;;;17.35;93.60;101497.84;4969881;28;20074;-62
2021/09/14 07:57:35;;;;;;;15.65;11.32;;;;;;;17.44;92.54;101488.81;4980450;28;20148;-62
2021/09/14 08:00:03;;;;;;;20.80;12.88;;;;;;;17.39;92.67;101483.25;4967280;28;20821;-62
2021/09/14 08:02:29;;;;;;;21.73;12.95;;;;;;;17.48;92.01;101492.78;4978540;28;20149;-63
2021/09/14 08:04:56;;;;;;;22.67;15.07;;;;;;;17.51;91.78;101488.97;4968126;28;20046;-62
2021/09/14 08:07:22;;;;;;;24.80;16.13;;;;;;;17.50;92.86;101503.22;4975935;28;20054;-62
2021/09/14 08:09:49;;;;;;;23.83;15.55;;;;;;;17.50;92.13;101505.88;4979822;28;20415;-62
2021/09/14 08:12:15;;;;;;;23.63;15.80;;;;;;;17.49;91.99;101506.88;4971758;28;20149;-62
2021/09/14 08:14:41;;;;;;;24.05;15.77;;;;;;;17.48;91.75;101507.88;4977033;28;20122;-62
2021/09/14 08:17:08;;;;;;;20.17;11.82;;;;;;;17.53;92.06;101514.31;4974135;28;20070;-61
2021/09/14 08:19:34;;;;;;;19.60;12.45;;;;;;;17.70;91.09;101519.50;4972191;28;20324;-60
2021/09/14 08:22:01;;;;;;;20.88;14.80;;;;;;;17.71;91.85;101507.88;4974379;28;20070;-60
2021/09/14 08:24:27;;;;;;;20.65;14.57;;;;;;;17.70;92.17;101519.50;4976852;28;20110;-62
2021/09/14 08:26:54;;;;;;;20.38;15.02;;;;;;;17.78;92.53;101516.81;4975999;28;20731;-62
2021/09/14 08:29:20;;;;;;;23.70;16.35;;;;;;;17.87;92.15;101520.25;4973356;28;20149;-62
2021/09/14 08:31:47;;;;;;;22.42;14.02;;;;;;;17.95;91.80;101510.41;4977012;28;20120;-62
2021/09/14 08:34:13;;;;;;;20.15;15.05;;;;;;;18.04;91.75;101521.78;4968309;28;20141;-62
2021/09/14 08:36:39;;;;;;;21.67;15.07;;;;;;;18.18;91.91;101513.00;4978154;28;20146;-62
2021/09/14 08:39:06;;;;;;;21.10;14.75;;;;;;;18.26;90.06;101520.06;4971071;28;20555;-62
2021/09/14 08:41:33;;;;;;;18.88;15.15;;;;;;;18.42;90.62;101519.09;4976039;28;20733;-62
2021/09/14 08:44:00;;;;;;;23.42;14.70;;;;;;;18.52;89.00;101513.53;4979073;28;20095;-62
2021/09/14 08:46:26;;;;;;;22.90;15.73;;;;;;;18.70;88.79;101523.78;4964422;28;20050;-62
2021/09/14 08:48:53;;;;;;;21.73;14.88;;;;;;;18.82;87.72;101514.41;4976522;28;20223;-63
2021/09/14 08:51:19;;;;;;;21.98;15.45;;;;;;;18.98;87.23;101517.88;4971526;28;20493;-63
2021/09/14 08:53:46;;;;;;;20.45;14.50;;;;;;;19.10;86.49;101511.88;4983666;28;20145;-63
2021/09/14 08:56:13;;;;;;;17.10;12.93;;;;;;;19.24;85.92;101512.03;4973525;28;20078;-62
2021/09/14 08:58:39;;;;;;;19.33;14.30;;;;;;;19.44;85.57;101515.75;4982886;28;20554;-62
2021/09/14 09:01:13;;;;;;;22.52;15.00;;;;;;;19.62;85.03;101512.69;4971246;28;20137;-62
2021/09/14 09:03:41;;;;;;;21.25;15.07;;;;;;;19.88;83.55;101498.81;4975281;28;20432;-60
2021/09/14 09:06:08;;;;;;;22.60;14.50;;;;;;;20.06;83.24;101505.53;4979270;28;20089;-61
2021/09/14 09:08:34;;;;;;;26.15;17.35;;;;;;;20.07;82.61;101507.16;4977010;28;20101;-61
2021/09/14 09:11:12;;;;;;;22.30;16.30;;;;;;;20.08;82.13;101509.63;4978690;28;20046;-60
2021/09/14 09:13:44;;;;;;;21.43;15.07;;;;;;;20.21;81.87;101506.25;4973919;28;20249;-62
2021/09/14 09:16:21;;;;;;;21.77;14.95;;;;;;;20.42;82.35;101499.22;4974286;28;20144;-61
2021/09/14 09:18:50;;;;;;;25.42;15.65;;;;;;;20.59;82.30;101495.25;4983839;28;20113;-62
2021/09/14 09:21:17;;;;;;;24.70;15.48;;;;;;;20.65;81.00;101496.31;4973416;28;20470;-60
2021/09/14 09:23:43;;;;;;;26.88;16.13;;;;;;;20.85;80.74;101493.75;4984020;28;20137;-63
2021/09/14 09:26:10;;;;;;;18.67;15.65;;;;;;;21.05;80.98;101483.16;4972552;28;20086;-63
2021/09/14 09:28:36;;;;;;;22.42;16.10;;;;;;;20.97;81.59;101480.66;4977209;28;20077;-63
2021/09/14 09:31:10;;;;;;;24.63;15.93;;;;;;;21.30;81.31;101494.94;4965691;28;20108;-63
2021/09/14 09:33:37;;;;;;;22.25;15.80;;;;;;;21.59;79.64;101492.16;4981464;28;21027;-63
2021/09/14 09:36:08;;;;;;;20.08;15.32;;;;;;;21.79;76.97;101492.19;4975071;28;20084;-63
2021/09/14 09:38:51;;;;;;;22.00;16.00;;;;;;;22.14;76.08;101489.31;4973267;28;20056;-63
2021/09/14 09:41:18;;;;;;;19.48;15.30;;;;;;;22.37;75.05;101475.53;4973964;28;20341;-63
2021/09/14 09:43:47;;;;;;;21.95;15.38;;;;;;;22.55;74.77;101488.25;4971807;28;20536;-63
2021/09/14 09:46:21;;;;;;;20.17;16.63;;;;;;;22.74;74.87;101486.53;4975861;28;20492;-63
2021/09/14 09:48:49;;;;;;;21.13;15.57;;;;;;;22.76;73.56;101487.97;4974057;28;20157;-62
2021/09/14 09:51:15;;;;;;;22.33;16.90;;;;;;;22.78;72.91;101477.06;4976534;28;20052;-61
2021/09/14 09:53:43;;;;;;;21.30;15.60;;;;;;;22.83;72.97;101479.91;4977781;28;20137;-63
2021/09/14 09:56:09;;;;;;;19.27;15.27;;;;;;;22.89;73.11;101482.56;4972805;28;20051;-63
2021/09/14 09:58:36;;;;;;;18.15;16.17;;;;;;;22.92;73.57;101473.31;4977858;28;20308;-62
2021/09/14 10:01:12;;;;;;;16.52;13.25;;;;;;;22.97;73.78;101465.44;4971860;28;20587;-63
2021/09/14 10:04:04;;;;;;;21.52;15.60;;;;;;;23.03;73.00;101461.13;4983194;28;20583;-63
2021/09/14 10:06:33;;;;;;;20.20;15.07;;;;;;;23.01;73.10;101450.63;4972449;28;20050;-63
2021/09/14 10:09:00;;;;;;;20.35;16.35;;;;;;;22.95;71.41;101456.81;4979208;28;20606;-63
2021/09/14 10:11:29;;;;;;;19.25;14.25;;;;;;;22.98;72.90;101456.41;4968317;28;20105;-63
2021/09/14 10:14:07;;;;;;;21.88;16.52;;;;;;;23.03;72.91;101464.63;4977597;28;20086;-63
2021/09/14 10:16:39;;;;;;;17.42;14.77;;;;;;;23.03;73.48;101463.81;4973231;28;20050;-63
2021/09/14 10:19:11;;;;;;;21.33;14.98;;;;;;;23.07;72.07;101451.63;4980845;28;20109;-63
2021/09/14 10:21:39;;;;;;;20.75;16.70;;;;;;;23.08;71.99;101458.63;4977732;28;20927;-63
2021/09/14 10:24:23;;;;;;;18.08;14.90;;;;;;;23.04;72.00;101462.78;4966877;28;20581;-63
2021/09/14 10:27:02;;;;;;;25.13;16.83;;;;;;;23.08;72.27;101456.78;4979292;28;20141;-63
2021/09/14 10:29:28;;;;;;;25.65;16.85;;;;;;;23.08;71.21;101453.28;4977188;28;20053;-63
2021/09/14 10:32:13;;;;;;;19.45;15.90;;;;;;;23.22;72.16;101443.31;4979927;28;20089;-63
2021/09/14 10:34:52;;;;;;;21.38;15.88;;;;;;;23.22;71.76;101440.66;4974018;28;20145;-63
2021/09/14 10:37:19;;;;;;;19.63;15.52;;;;;;;23.29;72.48;101436.91;4970984;28;20615;-62
2021/09/14 10:39:45;;;;;;;18.08;14.73;;;;;;;23.36;71.89;101436.84;4972066;28;20137;-63
2021/09/14 10:42:16;;;;;;;17.05;13.85;;;;;;;23.32;72.57;101430.28;4976622;28;20116;-63
2021/09/14 10:44:44;;;;;;;19.23;16.15;;;;;;;23.37;72.75;101429.66;4970279;28;20140;-63
2021/09/14 10:47:33;;;;;;;;;;;;;;;23.74;71.47;101430.59;4972470;28;20142;-61
2021/09/14 10:50:00;;;;;;;23.65;16.02;;;;;;;23.98;70.69;101434.31;4974483;28;20525;-63
2021/09/14 10:52:38;;;;;;;18.67;15.82;;;;;;;24.17;69.82;101435.16;4966858;28;20082;-62
2021/09/14 10:55:09;;;;;;;;;;;;;;;24.52;68.55;101433.78;4980482;28;20078;-62
2021/09/14 10:57:40;;;;;;;21.55;16.30;;;;;;;24.70;67.12;101441.81;4968321;28;19937;-63
2021/09/14 11:00:09;;;;;;;22.20;16.83;;;;;;;24.85;65.83;101444.09;4979421;28;20419;-63
2021/09/14 11:02:38;;;;;;;19.20;15.98;;;;;;;25.10;65.22;101449.34;4971779;28;20539;-62
2021/09/14 11:05:07;;;;;;;21.17;14.80;;;;;;;25.36;64.57;101436.59;4975791;28;20054;-62
2021/09/14 11:07:33;;;;;;;17.70;14.55;;;;;;;25.65;63.44;101437.59;4974382;28;20480;-62
2021/09/14 11:10:02;;;;;;;18.77;14.85;;;;;;;25.97;63.33;101431.91;4972900;28;20054;-63
2021/09/14 11:12:32;;;;;;;17.00;14.18;;;;;;;25.87;65.07;101428.94;4978297;28;20412;-63
2021/09/14 11:14:59;;;;;;;18.70;14.80;;;;;;;26.11;61.72;101432.47;4972964;28;20069;-63
2021/09/14 11:17:33;;;;;;;19.13;15.27;;;;;;;26.17;63.28;101418.09;4974739;28;20086;-63
2021/09/14 11:20:29;;;;;;;20.33;14.85;;;;;;;26.31;60.97;101426.72;4966822;28;20086;-63
2021/09/14 11:22:56;;;;;;;16.90;14.43;;;;;;;26.33;61.05;101416.56;4975636;28;20050;-64
2021/09/14 11:25:26;;;;;;;18.63;15.90;;;;;;;26.07;62.04;101402.56;4972699;28;20082;-63
2021/09/14 11:28:03;;;;;;;18.60;15.93;;;;;;;26.46;61.61;101410.88;4976624;28;20074;-64
2021/09/14 11:30:32;;;;;;;22.08;15.90;;;;;;;26.69;61.11;101401.97;4971876;28;20046;-63
2021/09/14 11:32:59;;;;;;;17.45;15.52;;;;;;;26.72;60.58;101403.38;4971186;28;20133;-63
2021/09/14 11:35:33;;;;;;;19.40;14.73;;;;;;;26.90;60.67;101396.97;4976913;28;20132;-63
2021/09/14 11:38:02;;;;;;;17.60;14.35;;;;;;;27.01;59.99;101393.38;4973334;28;20671;-64
2021/09/14 11:40:32;;;;;;;19.48;14.95;;;;;;;26.89;60.01;101382.66;4977618;28;20398;-63
2021/09/14 11:43:01;;;;;;;18.67;13.15;;;;;;;26.98;60.42;101383.13;4972004;28;20537;-64
2021/09/14 11:45:30;;;;;;;17.23;12.60;;;;;;;26.94;57.00;101384.66;4975960;28;20145;-63
2021/09/14 11:47:59;;;;;;;15.57;13.40;;;;;;;26.93;58.10;101374.94;4965903;28;20100;-62
2021/09/14 11:50:36;;;;;;;14.18;12.68;;;;;;;26.86;58.31;101376.97;4976053;28;20069;-63
2021/09/14 11:53:06;;;;;;;12.65;10.88;;;;;;;27.01;57.56;101379.91;4977916;28;20480;-63
2021/09/14 11:55:34;;;;;;;13.70;10.88;;;;;;;27.15;56.43;101381.25;4976142;28;20550;-64
2021/09/14 11:58:00;;;;;;;15.15;11.27;;;;;;;27.14;54.44;101378.81;4976136;28;20493;-63
2021/09/14 12:00:47;;;;;;;13.57;10.38;;;;;;;27.08;54.20;101367.13;4968035;28;20092;-64
2021/09/14 12:03:21;;;;;;;26.35;9.93;;;;;;;27.23;56.38;101370.06;4973075;28;20552;-64